Nome, Alaska
Current Conditions -  °F | °C
As of 2:53 PM on Tuesday 25 Nov 2014 (Local Time) from PAOM Reporting Station
Light Snow Light Snow  
Wind Chill:   Ceiling: 2000
Heat Index: 15°   Visibility: 9mi
Dew Point: 11°   Wind: 9mph
Humidity: 84%   Direction: 60°ENE
Pressure: 30.21"   Gusts: NA
Location:  64.5°N, 165.41°W
Report Text: PAOM 252353Z 06008KT 9SM -SN BKN020 M09/M12 A3021 RMK AO2 SNB04 SLP231 P0000 60000 T10941117 11083 21106 50012
Loading
Personal Weather Stations






























Interactive Weather Map New forecast layout! Learn more

10-Day Weather Forecast

Advertisements
Track Severe Weather on mobile